sensor_id;sensor_type;location;lat;lon;timestamp;P1;durP1;ratioP1;P2;durP2;ratioP2
18651;SDS011;9455;54.302;10.124;2023-05-07T00:00:50;14.47;;;6.60;;
18651;SDS011;9455;54.302;10.124;2023-05-07T00:03:17;19.73;;;6.90;;
18651;SDS011;9455;54.302;10.124;2023-05-07T00:05:44;14.20;;;5.77;;
18651;SDS011;9455;54.302;10.124;2023-05-07T00:08:11;10.10;;;5.50;;
18651;SDS011;9455;54.302;10.124;2023-05-07T00:10:38;15.73;;;6.00;;
18651;SDS011;9455;54.302;10.124;2023-05-07T00:13:04;8.83;;;5.20;;
18651;SDS011;9455;54.302;10.124;2023-05-07T00:15:31;13.23;;;5.20;;
18651;SDS011;9455;54.302;10.124;2023-05-07T00:17:59;13.27;;;6.23;;
18651;SDS011;9455;54.302;10.124;2023-05-07T00:20:25;15.50;;;5.60;;
18651;SDS011;9455;54.302;10.124;2023-05-07T00:22:52;11.20;;;5.77;;
18651;SDS011;9455;54.302;10.124;2023-05-07T00:25:19;15.83;;;6.00;;
18651;SDS011;9455;54.302;10.124;2023-05-07T00:27:46;16.83;;;6.03;;
18651;SDS011;9455;54.302;10.124;2023-05-07T00:30:12;12.30;;;6.57;;
18651;SDS011;9455;54.302;10.124;2023-05-07T00:32:39;12.80;;;6.70;;
18651;SDS011;9455;54.302;10.124;2023-05-07T00:35:08;11.80;;;5.80;;
18651;SDS011;9455;54.302;10.124;2023-05-07T00:37:35;11.80;;;5.87;;
18651;SDS011;9455;54.302;10.124;2023-05-07T00:40:01;14.13;;;5.90;;
18651;SDS011;9455;54.302;10.124;2023-05-07T00:42:32;11.27;;;5.60;;
18651;SDS011;9455;54.302;10.124;2023-05-07T00:44:58;11.60;;;6.17;;
18651;SDS011;9455;54.302;10.124;2023-05-07T00:47:25;16.23;;;6.37;;
18651;SDS011;9455;54.302;10.124;2023-05-07T00:49:51;16.07;;;6.40;;
18651;SDS011;9455;54.302;10.124;2023-05-07T00:52:20;9.37;;;5.10;;
18651;SDS011;9455;54.302;10.124;2023-05-07T00:54:51;11.70;;;6.47;;
18651;SDS011;9455;54.302;10.124;2023-05-07T00:57:18;13.93;;;5.87;;
18651;SDS011;9455;54.302;10.124;2023-05-07T00:59:46;15.60;;;6.83;;
18651;SDS011;9455;54.302;10.124;2023-05-07T01:02:13;12.23;;;6.50;;
18651;SDS011;9455;54.302;10.124;2023-05-07T01:04:40;13.67;;;6.60;;
18651;SDS011;9455;54.302;10.124;2023-05-07T01:07:06;12.47;;;5.90;;
18651;SDS011;9455;54.302;10.124;2023-05-07T01:09:35;14.93;;;6.43;;
18651;SDS011;9455;54.302;10.124;2023-05-07T01:12:03;12.33;;;5.90;;
18651;SDS011;9455;54.302;10.124;2023-05-07T01:14:30;20.67;;;7.10;;
18651;SDS011;9455;54.302;10.124;2023-05-07T01:16:58;10.00;;;6.10;;
18651;SDS011;9455;54.302;10.124;2023-05-07T01:19:25;14.33;;;6.20;;
18651;SDS011;9455;54.302;10.124;2023-05-07T01:21:52;12.17;;;6.80;;
18651;SDS011;9455;54.302;10.124;2023-05-07T01:24:28;10.37;;;5.83;;
18651;SDS011;9455;54.302;10.124;2023-05-07T01:26:56;11.40;;;5.63;;
18651;SDS011;9455;54.302;10.124;2023-05-07T01:29:22;8.70;;;5.43;;
18651;SDS011;9455;54.302;10.124;2023-05-07T01:31:49;11.97;;;6.30;;
18651;SDS011;9455;54.302;10.124;2023-05-07T01:34:17;13.67;;;6.37;;
18651;SDS011;9455;54.302;10.124;2023-05-07T01:36:47;13.07;;;6.50;;
18651;SDS011;9455;54.302;10.124;2023-05-07T01:39:14;14.50;;;6.70;;
18651;SDS011;9455;54.302;10.124;2023-05-07T01:41:43;11.63;;;6.80;;
18651;SDS011;9455;54.302;10.124;2023-05-07T01:44:11;19.23;;;7.53;;
18651;SDS011;9455;54.302;10.124;2023-05-07T01:46:39;11.90;;;6.57;;
18651;SDS011;9455;54.302;10.124;2023-05-07T01:49:06;16.57;;;6.73;;
18651;SDS011;9455;54.302;10.124;2023-05-07T01:51:33;12.57;;;6.63;;
18651;SDS011;9455;54.302;10.124;2023-05-07T01:54:00;18.23;;;7.00;;
18651;SDS011;9455;54.302;10.124;2023-05-07T01:56:27;14.77;;;7.00;;
18651;SDS011;9455;54.302;10.124;2023-05-07T01:58:55;9.67;;;6.50;;
18651;SDS011;9455;54.302;10.124;2023-05-07T02:01:21;11.07;;;6.37;;
18651;SDS011;9455;54.302;10.124;2023-05-07T02:03:48;13.33;;;6.90;;
18651;SDS011;9455;54.302;10.124;2023-05-07T02:06:15;10.70;;;6.33;;
18651;SDS011;9455;54.302;10.124;2023-05-07T02:08:41;12.73;;;6.37;;
18651;SDS011;9455;54.302;10.124;2023-05-07T02:11:08;13.67;;;6.43;;
18651;SDS011;9455;54.302;10.124;2023-05-07T02:13:34;15.33;;;7.57;;
18651;SDS011;9455;54.302;10.124;2023-05-07T02:16:02;9.37;;;6.77;;
18651;SDS011;9455;54.302;10.124;2023-05-07T02:18:30;11.80;;;7.27;;
18651;SDS011;9455;54.302;10.124;2023-05-07T02:20:57;9.00;;;5.87;;
18651;SDS011;9455;54.302;10.124;2023-05-07T02:23:23;10.73;;;6.47;;
18651;SDS011;9455;54.302;10.124;2023-05-07T02:25:50;13.00;;;6.50;;
18651;SDS011;9455;54.302;10.124;2023-05-07T02:28:17;11.20;;;6.53;;
18651;SDS011;9455;54.302;10.124;2023-05-07T02:30:44;11.27;;;6.40;;
18651;SDS011;9455;54.302;10.124;2023-05-07T02:33:12;9.57;;;6.23;;
18651;SDS011;9455;54.302;10.124;2023-05-07T02:35:39;9.67;;;5.90;;
18651;SDS011;9455;54.302;10.124;2023-05-07T02:38:05;10.83;;;6.10;;
18651;SDS011;9455;54.302;10.124;2023-05-07T02:40:32;10.90;;;6.40;;
18651;SDS011;9455;54.302;10.124;2023-05-07T02:42:59;10.97;;;6.60;;
18651;SDS011;9455;54.302;10.124;2023-05-07T02:45:26;7.40;;;5.37;;
18651;SDS011;9455;54.302;10.124;2023-05-07T02:47:52;11.40;;;6.07;;
18651;SDS011;9455;54.302;10.124;2023-05-07T02:50:21;9.70;;;6.13;;
18651;SDS011;9455;54.302;10.124;2023-05-07T02:52:48;12.07;;;6.23;;
18651;SDS011;9455;54.302;10.124;2023-05-07T02:55:15;10.53;;;6.03;;
18651;SDS011;9455;54.302;10.124;2023-05-07T02:57:41;6.53;;;5.37;;
18651;SDS011;9455;54.302;10.124;2023-05-07T03:00:11;10.87;;;5.60;;
18651;SDS011;9455;54.302;10.124;2023-05-07T03:02:39;9.50;;;6.20;;
18651;SDS011;9455;54.302;10.124;2023-05-07T03:05:06;12.47;;;5.23;;
18651;SDS011;9455;54.302;10.124;2023-05-07T03:07:34;7.83;;;5.77;;
18651;SDS011;9455;54.302;10.124;2023-05-07T03:10:01;10.20;;;5.80;;
18651;SDS011;9455;54.302;10.124;2023-05-07T03:12:27;10.00;;;5.47;;
18651;SDS011;9455;54.302;10.124;2023-05-07T03:14:54;7.20;;;5.60;;
18651;SDS011;9455;54.302;10.124;2023-05-07T03:17:21;8.17;;;5.50;;
18651;SDS011;9455;54.302;10.124;2023-05-07T03:19:47;8.13;;;5.47;;
18651;SDS011;9455;54.302;10.124;2023-05-07T03:22:14;8.37;;;5.67;;
18651;SDS011;9455;54.302;10.124;2023-05-07T03:24:42;10.00;;;5.50;;
18651;SDS011;9455;54.302;10.124;2023-05-07T03:27:08;10.07;;;5.93;;
18651;SDS011;9455;54.302;10.124;2023-05-07T03:29:35;7.40;;;5.37;;
18651;SDS011;9455;54.302;10.124;2023-05-07T03:32:02;12.97;;;5.93;;
18651;SDS011;9455;54.302;10.124;2023-05-07T03:34:28;5.43;;;4.90;;
18651;SDS011;9455;54.302;10.124;2023-05-07T03:36:55;8.60;;;6.00;;
18651;SDS011;9455;54.302;10.124;2023-05-07T03:39:22;8.97;;;4.90;;
18651;SDS011;9455;54.302;10.124;2023-05-07T03:41:50;10.20;;;5.80;;
18651;SDS011;9455;54.302;10.124;2023-05-07T03:44:17;10.27;;;5.60;;
18651;SDS011;9455;54.302;10.124;2023-05-07T03:46:43;10.30;;;5.87;;
18651;SDS011;9455;54.302;10.124;2023-05-07T03:49:10;9.57;;;4.93;;
18651;SDS011;9455;54.302;10.124;2023-05-07T03:51:37;9.73;;;6.10;;
18651;SDS011;9455;54.302;10.124;2023-05-07T03:54:03;8.20;;;5.57;;
18651;SDS011;9455;54.302;10.124;2023-05-07T03:56:30;12.37;;;5.80;;
18651;SDS011;9455;54.302;10.124;2023-05-07T03:58:58;11.03;;;6.37;;
18651;SDS011;9455;54.302;10.124;2023-05-07T04:01:24;11.47;;;4.87;;
18651;SDS011;9455;54.302;10.124;2023-05-07T04:03:51;8.63;;;6.03;;
18651;SDS011;9455;54.302;10.124;2023-05-07T04:06:17;7.63;;;5.07;;
18651;SDS011;9455;54.302;10.124;2023-05-07T04:08:44;7.80;;;5.57;;
18651;SDS011;9455;54.302;10.124;2023-05-07T04:11:10;9.33;;;5.83;;
18651;SDS011;9455;54.302;10.124;2023-05-07T04:13:37;6.37;;;5.07;;
18651;SDS011;9455;54.302;10.124;2023-05-07T04:16:05;7.10;;;5.20;;
18651;SDS011;9455;54.302;10.124;2023-05-07T04:18:32;10.23;;;4.97;;
18651;SDS011;9455;54.302;10.124;2023-05-07T04:20:59;6.77;;;4.83;;
18651;SDS011;9455;54.302;10.124;2023-05-07T04:23:25;7.43;;;4.97;;
18651;SDS011;9455;54.302;10.124;2023-05-07T04:25:52;11.53;;;6.27;;
18651;SDS011;9455;54.302;10.124;2023-05-07T04:28:19;8.43;;;5.03;;
18651;SDS011;9455;54.302;10.124;2023-05-07T04:30:46;6.07;;;4.70;;
18651;SDS011;9455;54.302;10.124;2023-05-07T04:33:14;6.07;;;4.60;;
18651;SDS011;9455;54.302;10.124;2023-05-07T04:35:41;6.20;;;4.43;;
18651;SDS011;9455;54.302;10.124;2023-05-07T04:38:08;7.03;;;4.50;;
18651;SDS011;9455;54.302;10.124;2023-05-07T04:40:35;6.13;;;4.40;;
18651;SDS011;9455;54.302;10.124;2023-05-07T04:43:02;8.50;;;4.93;;
18651;SDS011;9455;54.302;10.124;2023-05-07T04:45:29;5.10;;;4.50;;
18651;SDS011;9455;54.302;10.124;2023-05-07T04:47:56;8.97;;;4.77;;
18651;SDS011;9455;54.302;10.124;2023-05-07T04:50:24;4.27;;;3.97;;
18651;SDS011;9455;54.302;10.124;2023-05-07T04:52:50;6.97;;;4.23;;
18651;SDS011;9455;54.302;10.124;2023-05-07T04:55:17;6.73;;;4.53;;
18651;SDS011;9455;54.302;10.124;2023-05-07T04:57:44;10.33;;;5.27;;
18651;SDS011;9455;54.302;10.124;2023-05-07T05:00:11;8.60;;;4.47;;
18651;SDS011;9455;54.302;10.124;2023-05-07T05:02:39;7.23;;;5.20;;
18651;SDS011;9455;54.302;10.124;2023-05-07T05:05:06;10.03;;;5.00;;
18651;SDS011;9455;54.302;10.124;2023-05-07T05:07:34;8.17;;;5.03;;
18651;SDS011;9455;54.302;10.124;2023-05-07T05:10:01;8.13;;;5.40;;
18651;SDS011;9455;54.302;10.124;2023-05-07T05:12:28;7.93;;;5.37;;
18651;SDS011;9455;54.302;10.124;2023-05-07T05:14:55;6.67;;;5.17;;
18651;SDS011;9455;54.302;10.124;2023-05-07T05:17:21;7.50;;;4.57;;
18651;SDS011;9455;54.302;10.124;2023-05-07T05:19:48;7.87;;;4.87;;
18651;SDS011;9455;54.302;10.124;2023-05-07T05:22:15;9.73;;;5.10;;
18651;SDS011;9455;54.302;10.124;2023-05-07T05:24:42;7.40;;;5.43;;
18651;SDS011;9455;54.302;10.124;2023-05-07T05:27:09;14.40;;;6.20;;
18651;SDS011;9455;54.302;10.124;2023-05-07T05:29:36;12.60;;;5.27;;
18651;SDS011;9455;54.302;10.124;2023-05-07T05:32:02;9.37;;;5.70;;
18651;SDS011;9455;54.302;10.124;2023-05-07T05:34:29;9.87;;;5.47;;
18651;SDS011;9455;54.302;10.124;2023-05-07T05:36:55;6.70;;;5.37;;
18651;SDS011;9455;54.302;10.124;2023-05-07T05:39:22;10.20;;;5.40;;
18651;SDS011;9455;54.302;10.124;2023-05-07T05:41:50;5.57;;;4.37;;
18651;SDS011;9455;54.302;10.124;2023-05-07T05:44:17;6.50;;;4.70;;
18651;SDS011;9455;54.302;10.124;2023-05-07T05:46:43;9.03;;;5.27;;
18651;SDS011;9455;54.302;10.124;2023-05-07T05:49:10;7.57;;;5.03;;
18651;SDS011;9455;54.302;10.124;2023-05-07T05:51:36;8.83;;;5.20;;
18651;SDS011;9455;54.302;10.124;2023-05-07T05:54:03;9.53;;;4.83;;
18651;SDS011;9455;54.302;10.124;2023-05-07T05:56:29;5.50;;;4.53;;
18651;SDS011;9455;54.302;10.124;2023-05-07T05:58:57;5.40;;;4.40;;
18651;SDS011;9455;54.302;10.124;2023-05-07T06:01:24;6.17;;;4.90;;
18651;SDS011;9455;54.302;10.124;2023-05-07T06:03:51;7.30;;;5.17;;
18651;SDS011;9455;54.302;10.124;2023-05-07T06:06:18;12.27;;;4.57;;
18651;SDS011;9455;54.302;10.124;2023-05-07T06:08:44;5.70;;;4.30;;
18651;SDS011;9455;54.302;10.124;2023-05-07T06:11:11;6.07;;;4.33;;
18651;SDS011;9455;54.302;10.124;2023-05-07T06:13:37;7.53;;;5.00;;
18651;SDS011;9455;54.302;10.124;2023-05-07T06:16:06;6.47;;;4.63;;
18651;SDS011;9455;54.302;10.124;2023-05-07T06:18:33;6.07;;;4.03;;
18651;SDS011;9455;54.302;10.124;2023-05-07T06:21:01;5.80;;;4.70;;
18651;SDS011;9455;54.302;10.124;2023-05-07T06:23:27;8.40;;;5.57;;
18651;SDS011;9455;54.302;10.124;2023-05-07T06:25:54;7.20;;;4.60;;
18651;SDS011;9455;54.302;10.124;2023-05-07T06:28:20;6.23;;;4.27;;
18651;SDS011;9455;54.302;10.124;2023-05-07T06:30:47;6.50;;;3.73;;
18651;SDS011;9455;54.302;10.124;2023-05-07T06:33:16;7.43;;;4.53;;
18651;SDS011;9455;54.302;10.124;2023-05-07T06:35:42;5.23;;;3.70;;
18651;SDS011;9455;54.302;10.124;2023-05-07T06:38:09;6.07;;;4.60;;
18651;SDS011;9455;54.302;10.124;2023-05-07T06:40:37;6.70;;;5.03;;
18651;SDS011;9455;54.302;10.124;2023-05-07T06:43:03;5.53;;;4.43;;
18651;SDS011;9455;54.302;10.124;2023-05-07T06:45:30;5.33;;;4.00;;
18651;SDS011;9455;54.302;10.124;2023-05-07T06:47:56;5.93;;;4.27;;
18651;SDS011;9455;54.302;10.124;2023-05-07T06:50:24;5.03;;;4.07;;
18651;SDS011;9455;54.302;10.124;2023-05-07T06:52:51;4.80;;;4.30;;
18651;SDS011;9455;54.302;10.124;2023-05-07T06:55:17;6.47;;;4.43;;
18651;SDS011;9455;54.302;10.124;2023-05-07T06:57:44;6.80;;;4.83;;
18651;SDS011;9455;54.302;10.124;2023-05-07T07:00:11;5.73;;;4.57;;
18651;SDS011;9455;54.302;10.124;2023-05-07T07:02:38;7.40;;;4.03;;
18651;SDS011;9455;54.302;10.124;2023-05-07T07:05:05;8.23;;;4.47;;
18651;SDS011;9455;54.302;10.124;2023-05-07T07:07:34;8.03;;;5.07;;
18651;SDS011;9455;54.302;10.124;2023-05-07T07:10:01;6.17;;;4.30;;
18651;SDS011;9455;54.302;10.124;2023-05-07T07:12:29;10.07;;;4.80;;
18651;SDS011;9455;54.302;10.124;2023-05-07T07:14:55;5.53;;;4.00;;
18651;SDS011;9455;54.302;10.124;2023-05-07T07:17:22;5.07;;;3.77;;
18651;SDS011;9455;54.302;10.124;2023-05-07T07:19:48;4.40;;;4.00;;
18651;SDS011;9455;54.302;10.124;2023-05-07T07:22:15;4.93;;;4.20;;
18651;SDS011;9455;54.302;10.124;2023-05-07T07:24:43;8.17;;;4.40;;
18651;SDS011;9455;54.302;10.124;2023-05-07T07:27:09;4.30;;;3.90;;
18651;SDS011;9455;54.302;10.124;2023-05-07T07:29:36;5.27;;;4.03;;
18651;SDS011;9455;54.302;10.124;2023-05-07T07:32:02;6.13;;;4.07;;
18651;SDS011;9455;54.302;10.124;2023-05-07T07:34:29;5.60;;;4.40;;
18651;SDS011;9455;54.302;10.124;2023-05-07T07:36:56;4.47;;;3.40;;
18651;SDS011;9455;54.302;10.124;2023-05-07T07:39:22;8.03;;;3.40;;
18651;SDS011;9455;54.302;10.124;2023-05-07T07:41:50;9.27;;;4.20;;
18651;SDS011;9455;54.302;10.124;2023-05-07T07:44:17;4.00;;;3.53;;
18651;SDS011;9455;54.302;10.124;2023-05-07T07:46:43;6.13;;;3.73;;
18651;SDS011;9455;54.302;10.124;2023-05-07T07:49:10;3.97;;;3.57;;
18651;SDS011;9455;54.302;10.124;2023-05-07T07:51:36;3.53;;;3.27;;
18651;SDS011;9455;54.302;10.124;2023-05-07T07:54:03;3.80;;;3.37;;
18651;SDS011;9455;54.302;10.124;2023-05-07T07:56:31;3.90;;;3.50;;
18651;SDS011;9455;54.302;10.124;2023-05-07T07:59:00;3.40;;;3.07;;
18651;SDS011;9455;54.302;10.124;2023-05-07T08:01:26;3.00;;;2.70;;
18651;SDS011;9455;54.302;10.124;2023-05-07T08:03:53;4.07;;;3.03;;
18651;SDS011;9455;54.302;10.124;2023-05-07T08:06:19;4.27;;;2.93;;
18651;SDS011;9455;54.302;10.124;2023-05-07T08:08:46;3.50;;;2.87;;
18651;SDS011;9455;54.302;10.124;2023-05-07T08:11:12;3.20;;;2.90;;
18651;SDS011;9455;54.302;10.124;2023-05-07T08:13:39;4.63;;;3.13;;
18651;SDS011;9455;54.302;10.124;2023-05-07T08:16:07;9.03;;;3.40;;
18651;SDS011;9455;54.302;10.124;2023-05-07T08:18:33;4.50;;;3.17;;
18651;SDS011;9455;54.302;10.124;2023-05-07T08:21:00;4.40;;;3.77;;
18651;SDS011;9455;54.302;10.124;2023-05-07T08:23:27;6.30;;;3.83;;
18651;SDS011;9455;54.302;10.124;2023-05-07T08:25:53;5.33;;;3.97;;
18651;SDS011;9455;54.302;10.124;2023-05-07T08:28:20;5.63;;;3.93;;
18651;SDS011;9455;54.302;10.124;2023-05-07T08:30:47;4.77;;;3.47;;
18651;SDS011;9455;54.302;10.124;2023-05-07T08:33:14;5.50;;;3.60;;
18651;SDS011;9455;54.302;10.124;2023-05-07T08:35:41;4.40;;;3.13;;
18651;SDS011;9455;54.302;10.124;2023-05-07T08:38:08;12.17;;;4.00;;
18651;SDS011;9455;54.302;10.124;2023-05-07T08:40:36;4.30;;;3.27;;
18651;SDS011;9455;54.302;10.124;2023-05-07T08:43:05;3.40;;;3.10;;
18651;SDS011;9455;54.302;10.124;2023-05-07T08:45:33;3.73;;;3.07;;
18651;SDS011;9455;54.302;10.124;2023-05-07T08:48:01;7.97;;;4.00;;
18651;SDS011;9455;54.302;10.124;2023-05-07T08:50:30;5.07;;;3.77;;
18651;SDS011;9455;54.302;10.124;2023-05-07T08:52:57;5.47;;;2.70;;
18651;SDS011;9455;54.302;10.124;2023-05-07T08:55:25;6.70;;;3.40;;
18651;SDS011;9455;54.302;10.124;2023-05-07T08:57:51;4.13;;;2.80;;
18651;SDS011;9455;54.302;10.124;2023-05-07T09:00:18;3.20;;;2.90;;
18651;SDS011;9455;54.302;10.124;2023-05-07T09:02:45;3.77;;;3.37;;
18651;SDS011;9455;54.302;10.124;2023-05-07T09:05:12;4.53;;;3.40;;
18651;SDS011;9455;54.302;10.124;2023-05-07T09:07:40;5.37;;;3.30;;
18651;SDS011;9455;54.302;10.124;2023-05-07T09:10:07;4.47;;;3.17;;
18651;SDS011;9455;54.302;10.124;2023-05-07T09:12:34;3.27;;;3.00;;
18651;SDS011;9455;54.302;10.124;2023-05-07T09:15:01;3.73;;;3.27;;
18651;SDS011;9455;54.302;10.124;2023-05-07T09:17:28;6.20;;;3.77;;
18651;SDS011;9455;54.302;10.124;2023-05-07T09:19:54;2.90;;;2.70;;
18651;SDS011;9455;54.302;10.124;2023-05-07T09:22:21;4.30;;;2.77;;
18651;SDS011;9455;54.302;10.124;2023-05-07T09:24:49;4.70;;;3.37;;
18651;SDS011;9455;54.302;10.124;2023-05-07T09:27:17;2.77;;;2.60;;
18651;SDS011;9455;54.302;10.124;2023-05-07T09:29:44;8.37;;;2.80;;
18651;SDS011;9455;54.302;10.124;2023-05-07T09:32:11;2.87;;;2.67;;
18651;SDS011;9455;54.302;10.124;2023-05-07T09:34:38;3.37;;;2.93;;
18651;SDS011;9455;54.302;10.124;2023-05-07T09:37:05;3.27;;;2.70;;
18651;SDS011;9455;54.302;10.124;2023-05-07T09:39:38;2.83;;;2.60;;
18651;SDS011;9455;54.302;10.124;2023-05-07T09:42:07;3.17;;;2.90;;
18651;SDS011;9455;54.302;10.124;2023-05-07T09:44:34;2.53;;;2.43;;
18651;SDS011;9455;54.302;10.124;2023-05-07T09:47:01;18.63;;;3.03;;
18651;SDS011;9455;54.302;10.124;2023-05-07T09:49:32;3.10;;;2.90;;
18651;SDS011;9455;54.302;10.124;2023-05-07T09:52:01;5.90;;;2.60;;
18651;SDS011;9455;54.302;10.124;2023-05-07T09:54:28;3.57;;;2.83;;
18651;SDS011;9455;54.302;10.124;2023-05-07T09:56:56;3.60;;;3.17;;
18651;SDS011;9455;54.302;10.124;2023-05-07T09:59:24;2.70;;;2.50;;
18651;SDS011;9455;54.302;10.124;2023-05-07T10:01:53;2.80;;;2.60;;
18651;SDS011;9455;54.302;10.124;2023-05-07T10:04:24;3.27;;;2.97;;
18651;SDS011;9455;54.302;10.124;2023-05-07T10:06:51;3.27;;;3.07;;
18651;SDS011;9455;54.302;10.124;2023-05-07T10:09:18;2.67;;;2.47;;
18651;SDS011;9455;54.302;10.124;2023-05-07T10:11:46;2.93;;;2.73;;
18651;SDS011;9455;54.302;10.124;2023-05-07T10:14:15;2.60;;;2.40;;
18651;SDS011;9455;54.302;10.124;2023-05-07T10:16:43;2.80;;;2.60;;
18651;SDS011;9455;54.302;10.124;2023-05-07T10:19:11;2.60;;;2.40;;
18651;SDS011;9455;54.302;10.124;2023-05-07T10:21:39;4.87;;;3.10;;
18651;SDS011;9455;54.302;10.124;2023-05-07T10:24:10;4.13;;;3.03;;
18651;SDS011;9455;54.302;10.124;2023-05-07T10:26:43;2.43;;;2.33;;
18651;SDS011;9455;54.302;10.124;2023-05-07T10:29:12;2.30;;;2.20;;
18651;SDS011;9455;54.302;10.124;2023-05-07T10:34:36;5.30;;;3.10;;
18651;SDS011;9455;54.302;10.124;2023-05-07T10:37:06;3.40;;;2.33;;
18651;SDS011;9455;54.302;10.124;2023-05-07T10:39:35;3.43;;;2.33;;
18651;SDS011;9455;54.302;10.124;2023-05-07T10:42:11;2.83;;;2.63;;
18651;SDS011;9455;54.302;10.124;2023-05-07T10:44:39;2.90;;;2.70;;
18651;SDS011;9455;54.302;10.124;2023-05-07T10:47:08;2.60;;;2.40;;
18651;SDS011;9455;54.302;10.124;2023-05-07T10:49:36;2.83;;;1.97;;
18651;SDS011;9455;54.302;10.124;2023-05-07T10:52:13;2.30;;;2.10;;
18651;SDS011;9455;54.302;10.124;2023-05-07T10:54:41;2.60;;;2.10;;
18651;SDS011;9455;54.302;10.124;2023-05-07T11:00:03;2.20;;;2.10;;
18651;SDS011;9455;54.302;10.124;2023-05-07T11:03:07;2.20;;;1.97;;
18651;SDS011;9455;54.302;10.124;2023-05-07T11:05:34;3.07;;;2.33;;
18651;SDS011;9455;54.302;10.124;2023-05-07T11:08:02;2.43;;;2.23;;
18651;SDS011;9455;54.302;10.124;2023-05-07T11:10:48;4.40;;;2.00;;
18651;SDS011;9455;54.302;10.124;2023-05-07T11:13:16;1.80;;;1.80;;
18651;SDS011;9455;54.302;10.124;2023-05-07T11:15:44;2.13;;;1.90;;
18651;SDS011;9455;54.302;10.124;2023-05-07T11:18:13;1.40;;;1.40;;
18651;SDS011;9455;54.302;10.124;2023-05-07T11:20:53;3.90;;;1.83;;
18651;SDS011;9455;54.302;10.124;2023-05-07T11:26:23;2.83;;;1.93;;
18651;SDS011;9455;54.302;10.124;2023-05-07T11:28:51;2.00;;;1.90;;
18651;SDS011;9455;54.302;10.124;2023-05-07T11:31:20;2.07;;;1.97;;
18651;SDS011;9455;54.302;10.124;2023-05-07T11:33:50;3.00;;;2.27;;
18651;SDS011;9455;54.302;10.124;2023-05-07T11:36:18;1.40;;;1.30;;
18651;SDS011;9455;54.302;10.124;2023-05-07T11:38:45;1.73;;;1.63;;
18651;SDS011;9455;54.302;10.124;2023-05-07T11:41:12;6.10;;;2.27;;
18651;SDS011;9455;54.302;10.124;2023-05-07T11:43:49;1.60;;;1.50;;
18651;SDS011;9455;54.302;10.124;2023-05-07T11:46:20;1.53;;;1.53;;
18651;SDS011;9455;54.302;10.124;2023-05-07T11:48:47;3.40;;;2.03;;
18651;SDS011;9455;54.302;10.124;2023-05-07T11:51:15;4.40;;;1.20;;
18651;SDS011;9455;54.302;10.124;2023-05-07T11:53:45;1.73;;;1.57;;
18651;SDS011;9455;54.302;10.124;2023-05-07T11:56:12;2.90;;;1.80;;
18651;SDS011;9455;54.302;10.124;2023-05-07T11:58:40;1.80;;;1.70;;
18651;SDS011;9455;54.302;10.124;2023-05-07T12:01:08;2.50;;;1.87;;
18651;SDS011;9455;54.302;10.124;2023-05-07T12:03:35;1.43;;;1.40;;
18651;SDS011;9455;54.302;10.124;2023-05-07T12:06:04;2.13;;;1.83;;
18651;SDS011;9455;54.302;10.124;2023-05-07T12:08:35;1.87;;;1.50;;
18651;SDS011;9455;54.302;10.124;2023-05-07T12:11:03;1.67;;;1.57;;
18651;SDS011;9455;54.302;10.124;2023-05-07T12:13:32;1.10;;;1.10;;
18651;SDS011;9455;54.302;10.124;2023-05-07T12:15:59;1.10;;;1.10;;
18651;SDS011;9455;54.302;10.124;2023-05-07T12:18:28;2.67;;;1.57;;
18651;SDS011;9455;54.302;10.124;2023-05-07T12:20:55;2.00;;;1.90;;
18651;SDS011;9455;54.302;10.124;2023-05-07T12:23:21;1.77;;;1.33;;
18651;SDS011;9455;54.302;10.124;2023-05-07T12:25:50;2.97;;;1.40;;
18651;SDS011;9455;54.302;10.124;2023-05-07T12:28:17;1.10;;;0.97;;
18651;SDS011;9455;54.302;10.124;2023-05-07T12:30:45;1.43;;;1.33;;
18651;SDS011;9455;54.302;10.124;2023-05-07T12:33:15;2.10;;;1.00;;
18651;SDS011;9455;54.302;10.124;2023-05-07T12:35:43;1.40;;;1.40;;
18651;SDS011;9455;54.302;10.124;2023-05-07T12:38:10;1.20;;;1.20;;
18651;SDS011;9455;54.302;10.124;2023-05-07T12:40:39;1.20;;;1.13;;
18651;SDS011;9455;54.302;10.124;2023-05-07T12:43:08;1.40;;;1.40;;
18651;SDS011;9455;54.302;10.124;2023-05-07T12:45:41;1.67;;;1.57;;
18651;SDS011;9455;54.302;10.124;2023-05-07T12:48:09;1.73;;;1.63;;
18651;SDS011;9455;54.302;10.124;2023-05-07T12:50:36;1.80;;;1.70;;
18651;SDS011;9455;54.302;10.124;2023-05-07T12:53:02;1.53;;;1.17;;
18651;SDS011;9455;54.302;10.124;2023-05-07T12:55:31;1.73;;;1.30;;
18651;SDS011;9455;54.302;10.124;2023-05-07T12:58:00;1.40;;;1.40;;
18651;SDS011;9455;54.302;10.124;2023-05-07T13:00:35;1.60;;;1.60;;
18651;SDS011;9455;54.302;10.124;2023-05-07T13:03:02;1.20;;;1.10;;
18651;SDS011;9455;54.302;10.124;2023-05-07T13:05:28;1.17;;;1.17;;
18651;SDS011;9455;54.302;10.124;2023-05-07T13:07:55;1.60;;;1.47;;
18651;SDS011;9455;54.302;10.124;2023-05-07T13:10:22;0.80;;;0.80;;
18651;SDS011;9455;54.302;10.124;2023-05-07T13:12:49;1.93;;;1.20;;
18651;SDS011;9455;54.302;10.124;2023-05-07T13:15:16;1.80;;;1.70;;
18651;SDS011;9455;54.302;10.124;2023-05-07T13:17:44;1.73;;;1.63;;
18651;SDS011;9455;54.302;10.124;2023-05-07T13:20:11;3.50;;;1.40;;
18651;SDS011;9455;54.302;10.124;2023-05-07T13:22:38;1.10;;;1.10;;
18651;SDS011;9455;54.302;10.124;2023-05-07T13:25:06;2.23;;;1.40;;
18651;SDS011;9455;54.302;10.124;2023-05-07T13:27:33;1.10;;;1.10;;
18651;SDS011;9455;54.302;10.124;2023-05-07T13:30:01;2.77;;;1.17;;
18651;SDS011;9455;54.302;10.124;2023-05-07T13:32:29;1.00;;;1.00;;
18651;SDS011;9455;54.302;10.124;2023-05-07T13:34:57;1.07;;;1.07;;
18651;SDS011;9455;54.302;10.124;2023-05-07T13:37:24;4.67;;;1.10;;
18651;SDS011;9455;54.302;10.124;2023-05-07T13:39:50;1.10;;;1.10;;
18651;SDS011;9455;54.302;10.124;2023-05-07T13:42:17;3.37;;;1.03;;
18651;SDS011;9455;54.302;10.124;2023-05-07T13:44:44;2.60;;;1.47;;
18651;SDS011;9455;54.302;10.124;2023-05-07T13:47:11;2.67;;;0.73;;
18651;SDS011;9455;54.302;10.124;2023-05-07T13:49:45;1.27;;;1.20;;
18651;SDS011;9455;54.302;10.124;2023-05-07T13:52:15;0.93;;;0.90;;
18651;SDS011;9455;54.302;10.124;2023-05-07T13:54:42;1.27;;;1.17;;
18651;SDS011;9455;54.302;10.124;2023-05-07T13:57:09;1.23;;;1.13;;
18651;SDS011;9455;54.302;10.124;2023-05-07T13:59:35;1.20;;;1.20;;
18651;SDS011;9455;54.302;10.124;2023-05-07T14:02:02;2.53;;;1.23;;
18651;SDS011;9455;54.302;10.124;2023-05-07T14:04:30;1.07;;;1.07;;
18651;SDS011;9455;54.302;10.124;2023-05-07T14:06:57;5.83;;;1.33;;
18651;SDS011;9455;54.302;10.124;2023-05-07T14:09:25;1.27;;;1.23;;
18651;SDS011;9455;54.302;10.124;2023-05-07T14:11:51;1.23;;;0.97;;
18651;SDS011;9455;54.302;10.124;2023-05-07T14:14:18;0.97;;;0.97;;
18651;SDS011;9455;54.302;10.124;2023-05-07T14:16:44;1.53;;;1.40;;
18651;SDS011;9455;54.302;10.124;2023-05-07T14:19:11;2.23;;;1.20;;
18651;SDS011;9455;54.302;10.124;2023-05-07T14:21:38;0.87;;;0.87;;
18651;SDS011;9455;54.302;10.124;2023-05-07T14:24:05;5.70;;;1.17;;
18651;SDS011;9455;54.302;10.124;2023-05-07T14:26:34;2.20;;;1.40;;
18651;SDS011;9455;54.302;10.124;2023-05-07T14:29:01;2.47;;;0.93;;
18651;SDS011;9455;54.302;10.124;2023-05-07T14:31:28;0.93;;;0.93;;
18651;SDS011;9455;54.302;10.124;2023-05-07T14:33:54;1.30;;;1.20;;
18651;SDS011;9455;54.302;10.124;2023-05-07T14:36:23;1.33;;;0.93;;
18651;SDS011;9455;54.302;10.124;2023-05-07T14:38:51;1.00;;;1.00;;
18651;SDS011;9455;54.302;10.124;2023-05-07T14:41:17;1.33;;;1.20;;
18651;SDS011;9455;54.302;10.124;2023-05-07T14:43:45;1.20;;;1.20;;
18651;SDS011;9455;54.302;10.124;2023-05-07T14:46:15;1.20;;;1.20;;
18651;SDS011;9455;54.302;10.124;2023-05-07T14:48:42;1.10;;;1.10;;
18651;SDS011;9455;54.302;10.124;2023-05-07T14:51:09;1.20;;;1.20;;
18651;SDS011;9455;54.302;10.124;2023-05-07T14:53:36;1.13;;;1.13;;
18651;SDS011;9455;54.302;10.124;2023-05-07T14:56:03;1.43;;;1.10;;